Airfield :
LOGIN :

Register | Disclaimer

   EN    FR    IT 

 










Legend :    VFR   Marginal VFR   IFR   Intensive IFR   Very Intensive IFR
Visi :
Ceiling :
>= 8 km
>= 3000ft
5 to 8 km
1000 to 3000 ft
1500m to 5 km
500 to 1000 ft
800 to 1500m
200 to 500 ft
< 800m
< 200 ft
Symbols :   Thunderstorms  Fog  Heavy snow  Heavy precipitations  Wind > 20 kt
SIGMETs :     Misc.  Thunderstorms  Icing  Turbulence  Mountain Waves  Volcanic Ashes






- Airport Elevation : 121 ft
- IATA code : HUY


EGNJ - Humberside

CURRENT METAR :
  • 290950Z 18011KT 8000 -RA SCT024 BKN035 09/08 Q1009

EXPIRED METARs :
  • 290920Z 19010KT 8000 -RA SCT024 BKN035 09/08 Q1009
  • 290850Z 20013KT 8000 -RA SCT030 BKN040 08/07 Q1009
  • 290820Z 19012KT 8000 -RA SCT025 BKN045 08/07 Q1009 RERA
  • 290750Z AUTO 21016KT 9999 BKN048/// 08/06 Q1008
  • 290720Z AUTO 21013KT 9999 NCD 08/06 Q1008

TAF TAF EGNJ
Valid from the 29 at 09:00 until the 29 at 18:00 UTC


290807Z 2909/2918 19012KT 9999 SCT030
TEMPO 2909/2915 7000 RA
PROB30
TEMPO 2910/2914 3000 +RA BKN004
PROB40
TEMPO 2912/2918 22016G26KT
PROB30
TEMPO 2915/2918 8000 -RA
ATIS : +44 1652 682 020



MET'MAP, your aeronautical weather chart ! - Copyright ORBIFLY December 2007 - Disclaimer

ORBIFLY MET'MAP TEAM :

Programming & Development : Alexandra Zaïnal
Concept & original design : Baudouin d'Aumeries
Assistance for programming : Marc-Olivier Méhu
Technical & hardware support : Manuel Goepfert

Contact : metmap@orbifly.com




SOURCES & CREDITS :

   NOAA